Etusivu
METAR-TAF:

METAR-TAF

Lentoasemat :

Heidrun, Norja

Leveyspiiri: 65-19-30N, Pituuspiiri: 007-19-36E, korkeus merenpinnasta: 0 m

Tämänhetkinen sää

Tämä raportti tehtiin 36 minuuttia sitten, kello 22.50 UTC
Tuuli 22 kn idästä
Lämpötila 6°C
Kosteus 75%
Ilmanpaine 1035 hPa
Näkyvyys 10 km tai enemmän
Pilvistä 1800 ft:n korkeudessa

METAR: ENHE 202250Z 09022KT 9999 OVC018 06/02 Q1035 W///S4

Aika: 00:26 (23:26 UTC)

Sääennuste

Tämä raportti tehtiin 3 tuntia ja 26 minuuttia sitten, kello 20.00 UTC
Ennuste voimassa 20. päivästä klo 21 UTC - 21. päivään klo 06 UTC
Tuuli 22 kn idästä/koillisesta
Näkyvyys 10 km tai enemmän
Hajonneita pilviä 2000 ft:n korkeudessa

TAF: ENHE 202000Z 2021/2106 07022KT 9999 BKN020

Säähavainnot ja -ennusteet yli 4000 lentoasemalta (METAR- ja TAF-raportit).

Käytössä olevat sääasemat on merkitty karttaan keltaisilla ja punaisilla pisteillä.

Aseta hiiri pisteen päälle nähdäksesi sääaseman nimen.

Klikkaa sitten nähdäksesi säähavainnot ja -ennusteet.

Kartan vaihtaminen: klikkaa mustalla rastilla varustettuja vihreitä pisteitä, niin voit zoomata sisään; viivalla varustettua vihreää pistettä, niin voit zoomata ulos tai vihreitä nuolia, niin pääset viereisille kartoille.


METAR-TAF: